Time;durP1;ratioP1;P1;durP2;ratioP2;P2;SDS_P1;SDS_P2;PMS_P1;PMS_P2;Temp;Humidity;BMP_temperature;BMP_pressure;BME280_temperature;BME280_humidity;BME280_pressure;Samples;Min_cycle;Max_cycle;Signal;HPM_P1;HPM_P2
2022/04/06 00:02:23;;;;;;;6.50;5.00;;;;;;;9.26;85.82;98066.47;4991842;28;20194;-57
2022/04/06 00:04:50;;;;;;;7.47;5.97;;;;;;;9.23;85.94;98058.13;4991829;28;20199;-56
2022/04/06 00:07:17;;;;;;;8.30;5.93;;;;;;;9.24;85.84;98047.56;5001840;28;20202;-57
2022/04/06 00:09:44;;;;;;;8.43;5.73;;;;;;;9.24;85.84;98052.78;5011187;28;20206;-57
2022/04/06 00:12:11;;;;;;;8.33;5.87;;;;;;;9.30;85.43;98051.31;5011236;28;20194;-57
2022/04/06 00:14:39;;;;;;;8.00;5.63;;;;;;;9.27;85.12;98049.03;5010515;28;20200;-57
2022/04/06 00:17:07;;;;;;;7.40;5.57;;;;;;;9.34;85.68;98046.63;5010437;28;20229;-57
2022/04/06 00:19:35;;;;;;;7.60;5.03;;;;;;;9.39;84.64;98045.16;5010450;28;20218;-57
2022/04/06 00:22:03;;;;;;;8.60;6.03;;;;;;;9.40;85.67;98033.78;5011162;28;20623;-56
2022/04/06 00:24:30;;;;;;;8.20;5.27;;;;;;;9.36;85.39;98040.28;5010665;28;20739;-57
2022/04/06 00:26:57;;;;;;;7.30;5.03;;;;;;;9.38;85.54;98037.53;5010875;28;20192;-57
2022/04/06 00:29:23;;;;;;;6.83;5.63;;;;;;;9.43;84.29;98032.66;5009692;28;20687;-57
2022/04/06 00:31:51;;;;;;;8.87;5.30;;;;;;;9.41;85.25;98030.19;5010268;28;20682;-57
2022/04/06 00:34:18;;;;;;;7.30;5.70;;;;;;;9.44;84.84;98032.50;5010387;28;20195;-57
2022/04/06 00:36:45;;;;;;;7.07;4.93;;;;;;;9.39;84.97;98034.75;4980376;28;20222;-56
2022/04/06 00:39:12;;;;;;;8.87;6.17;;;;;;;9.38;84.95;98033.13;4971819;28;20718;-57
2022/04/06 00:41:39;;;;;;;7.20;5.80;;;;;;;9.40;84.82;98030.38;4971346;28;20665;-57
2022/04/06 00:44:12;;;;;;;9.80;6.37;;;;;;;9.37;85.06;98023.66;4971231;28;20214;-57
2022/04/06 00:46:39;;;;;;;7.53;5.70;;;;;;;9.35;85.39;98022.22;4971610;28;20199;-57
2022/04/06 00:49:13;;;;;;;7.17;5.57;;;;;;;9.36;86.30;98018.63;4970417;28;20270;-57
2022/04/06 00:51:43;;;;;;;6.97;5.60;;;;;;;9.33;86.20;98014.53;4982487;28;20306;-57
2022/04/06 00:54:12;;;;;;;9.47;6.13;;;;;;;9.32;86.40;98020.72;4990747;28;20676;-57
2022/04/06 00:56:40;;;;;;;8.30;6.10;;;;;;;9.37;85.32;98013.25;4990277;28;20537;-57
2022/04/06 00:59:07;;;;;;;7.40;5.90;;;;;;;9.35;85.92;98012.59;4990985;28;20274;-57
2022/04/06 01:01:34;;;;;;;8.23;6.10;;;;;;;9.42;85.55;98016.19;4990713;28;20202;-57
2022/04/06 01:04:01;;;;;;;10.30;6.37;;;;;;;9.50;84.27;98009.38;4990410;28;20191;-57
2022/04/06 01:06:29;;;;;;;7.23;6.07;;;;;;;9.53;84.05;98009.06;4978062;28;20795;-57
2022/04/06 01:08:56;;;;;;;6.07;5.37;;;;;;;9.45;84.54;98013.28;4971062;28;20219;-57
2022/04/06 01:11:24;;;;;;;7.93;5.17;;;;;;;9.46;84.94;98014.09;4970782;28;20200;-57
2022/04/06 01:13:53;;;;;;;9.13;6.23;;;;;;;9.41;85.78;98004.16;4971527;28;20235;-57
2022/04/06 01:16:20;;;;;;;7.87;5.60;;;;;;;9.39;85.40;98011.31;4971167;28;20299;-57
2022/04/06 01:18:47;;;;;;;6.57;4.93;;;;;;;9.41;85.11;98008.56;4971185;28;20211;-57
2022/04/06 01:21:15;;;;;;;7.87;5.27;;;;;;;9.41;84.27;98006.75;4971028;28;20188;-57
2022/04/06 01:23:44;;;;;;;7.67;4.97;;;;;;;9.52;83.76;98002.22;4971218;28;20198;-57
2022/04/06 01:26:12;;;;;;;6.63;4.60;;;;;;;9.47;84.27;97996.69;4970886;28;20195;-57
2022/04/06 01:28:40;;;;;;;5.50;4.50;;;;;;;9.48;83.63;97996.53;4971258;28;20214;-57
2022/04/06 01:31:07;;;;;;;6.30;4.33;;;;;;;9.42;84.57;98003.19;4990736;28;20193;-57
2022/04/06 01:33:34;;;;;;;6.40;4.53;;;;;;;9.39;84.56;98000.09;5009412;28;20248;-57
2022/04/06 01:36:01;;;;;;;5.67;4.33;;;;;;;9.41;83.42;98001.53;4991174;28;20278;-57
2022/04/06 01:38:29;;;;;;;5.50;3.97;;;;;;;9.44;84.88;97997.81;4970702;28;20771;-57
2022/04/06 01:40:57;;;;;;;5.00;3.80;;;;;;;9.39;84.24;97998.28;4970846;28;20588;-57
2022/04/06 01:43:24;;;;;;;5.40;4.37;;;;;;;9.38;84.25;97990.63;4971287;28;20672;-57
2022/04/06 01:45:51;;;;;;;4.87;3.80;;;;;;;9.38;84.41;97995.84;4985051;28;20192;-57
2022/04/06 01:53:50;;;;;;;5.93;4.20;;;;;;;9.41;83.71;97987.72;4944956;29;20205;-57
2022/04/06 01:56:18;;;;;;;4.17;3.77;;;;;;;9.41;84.35;97985.91;4989257;28;20216;-57
2022/04/06 01:58:45;;;;;;;5.43;3.50;;;;;;;9.42;84.38;97977.13;5003283;28;20261;-57
2022/04/06 02:01:12;;;;;;;5.60;4.20;;;;;;;9.41;84.55;97983.31;4988447;28;20194;-57
2022/04/06 02:03:39;;;;;;;5.17;3.80;;;;;;;9.38;84.43;97985.44;4984481;28;20241;-57
2022/04/06 02:06:06;;;;;;;5.30;3.27;;;;;;;9.39;84.81;97981.84;4984653;28;20255;-57
2022/04/06 02:08:32;;;;;;;4.33;3.07;;;;;;;9.40;84.90;97973.88;4993165;28;20202;-57
2022/04/06 02:10:59;;;;;;;3.90;3.20;;;;;;;9.41;83.66;97974.69;4992539;28;20191;-57
2022/04/06 02:13:27;;;;;;;3.40;3.10;;;;;;;9.43;84.27;97975.34;4983478;28;20202;-57
2022/04/06 02:15:54;;;;;;;4.70;3.53;;;;;;;9.44;84.18;97969.16;4983168;28;20191;-57
2022/04/06 02:18:21;;;;;;;4.43;3.00;;;;;;;9.45;84.04;97966.38;4988834;28;20210;-56
2022/04/06 02:20:48;;;;;;;3.23;2.60;;;;;;;9.44;83.67;97963.97;4989514;28;20281;-57
2022/04/06 02:23:15;;;;;;;4.40;2.83;;;;;;;9.42;83.60;97960.69;4988891;28;20674;-57
2022/04/06 02:25:41;;;;;;;4.70;2.90;;;;;;;9.41;84.09;97964.28;4990188;28;20615;-57
2022/04/06 02:28:08;;;;;;;4.13;2.90;;;;;;;9.42;83.18;97960.69;4992718;28;20183;-57
2022/04/06 02:30:36;;;;;;;3.07;2.50;;;;;;;9.45;84.39;97962.97;4992145;28;20217;-57
2022/04/06 02:33:03;;;;;;;5.07;2.80;;;;;;;9.42;83.97;97966.72;4992528;28;20193;-57
2022/04/06 02:35:30;;;;;;;4.93;2.50;;;;;;;9.47;83.09;97958.44;4991547;28;20265;-56
2022/04/06 02:37:57;;;;;;;2.97;2.67;;;;;;;9.47;83.16;97948.00;4988231;28;20691;-57
2022/04/06 02:40:24;;;;;;;3.77;2.67;;;;;;;9.48;83.69;97946.19;4992283;28;20210;-57
2022/04/06 02:42:50;;;;;;;4.80;2.40;;;;;;;9.51;83.30;97943.28;4992876;28;20192;-57
2022/04/06 02:45:17;;;;;;;4.53;2.50;;;;;;;9.48;83.96;97938.38;4992722;28;20210;-57
2022/04/06 02:47:45;;;;;;;3.33;2.33;;;;;;;9.43;84.09;97941.50;4992632;28;20452;-56
2022/04/06 02:50:12;;;;;;;4.03;3.00;;;;;;;9.52;82.89;97948.34;4992006;28;20222;-56
2022/04/06 02:52:38;;;;;;;5.00;3.07;;;;;;;9.48;83.76;97938.38;4992583;28;20754;-56
2022/04/06 02:55:08;;;;;;;4.77;2.83;;;;;;;9.48;83.90;97946.19;4992319;28;20421;-57
2022/04/06 02:57:35;;;;;;;6.23;2.90;;;;;;;9.51;82.71;97943.28;4992278;28;20861;-56
2022/04/06 03:00:01;;;;;;;2.93;2.50;;;;;;;9.53;83.76;97941.31;4989965;28;20208;-56
2022/04/06 03:02:28;;;;;;;4.87;3.00;;;;;;;9.52;83.64;97935.31;4986026;28;20195;-56
2022/04/06 03:04:56;;;;;;;4.73;3.47;;;;;;;9.50;83.88;97924.25;4991632;28;20555;-57
2022/04/06 03:07:23;;;;;;;4.63;2.87;;;;;;;9.50;83.81;97937.25;4992095;28;20194;-56
2022/04/06 03:09:49;;;;;;;4.60;3.00;;;;;;;9.50;83.92;97939.03;4990534;28;20662;-56
2022/04/06 03:12:16;;;;;;;6.27;3.27;;;;;;;9.48;83.43;97936.63;4992238;28;20309;-56
2022/04/06 03:14:43;;;;;;;5.27;3.00;;;;;;;9.55;82.80;97934.16;4990988;28;20679;-56
2022/04/06 03:17:09;;;;;;;8.20;2.80;;;;;;;9.53;84.02;97929.13;4992418;28;20263;-56
2022/04/06 03:19:36;;;;;;;3.90;2.90;;;;;;;9.56;83.36;97918.34;4992422;28;20211;-56
2022/04/06 03:22:05;;;;;;;4.67;3.30;;;;;;;9.55;83.06;97919.34;4992690;28;20188;-56
2022/04/06 03:24:31;;;;;;;3.57;2.47;;;;;;;9.57;82.86;97917.38;4992276;28;20206;-57
2022/04/06 03:26:58;;;;;;;5.00;3.10;;;;;;;9.63;82.89;97920.31;4992598;28;20191;-56
2022/04/06 03:29:25;;;;;;;3.83;2.70;;;;;;;9.60;82.80;97926.69;4992454;28;20211;-56
2022/04/06 03:31:53;;;;;;;4.50;2.90;;;;;;;9.57;82.69;97912.16;4991603;28;20246;-58
2022/04/06 03:34:20;;;;;;;4.93;3.07;;;;;;;9.57;82.61;97914.78;4990213;28;20631;-57
2022/04/06 03:36:47;;;;;;;4.03;2.80;;;;;;;9.64;82.83;97914.97;4991915;28;20204;-57
2022/04/06 03:39:15;;;;;;;4.70;3.03;;;;;;;9.60;83.17;97918.88;4991999;28;20203;-57
2022/04/06 03:41:41;;;;;;;5.13;2.73;;;;;;;9.67;81.67;97916.41;4991802;28;20241;-55
2022/04/06 03:44:08;;;;;;;8.07;3.00;;;;;;;9.70;82.76;97914.31;4991442;28;20615;-55
2022/04/06 03:46:35;;;;;;;4.20;3.17;;;;;;;9.66;83.32;97904.34;4991890;28;20206;-55
2022/04/06 03:49:02;;;;;;;3.97;3.07;;;;;;;9.64;82.49;97916.72;4990409;28;20258;-55
2022/04/06 03:51:29;;;;;;;4.20;3.00;;;;;;;9.64;83.28;97911.53;4991446;28;20183;-56
2022/04/06 03:53:56;;;;;;;4.43;3.30;;;;;;;9.59;83.90;97910.22;4991605;28;20181;-55
2022/04/06 03:56:24;;;;;;;6.17;3.50;;;;;;;9.53;84.27;97908.28;4991649;28;20255;-55
2022/04/06 03:58:51;;;;;;;4.83;3.60;;;;;;;9.59;84.51;97910.22;4991448;28;20311;-55
2022/04/06 04:01:18;;;;;;;5.73;3.50;;;;;;;9.51;85.57;97910.25;4991319;28;20201;-55
2022/04/06 04:03:45;;;;;;;6.53;3.30;;;;;;;9.44;86.78;97896.22;4991660;28;20195;-55
2022/04/06 04:06:11;;;;;;;4.27;3.20;;;;;;;9.42;87.09;97893.78;4990988;28;20823;-55
2022/04/06 04:08:38;;;;;;;8.33;3.60;;;;;;;9.38;87.85;97896.88;4991372;28;20208;-55
2022/04/06 04:11:05;;;;;;;4.10;3.17;;;;;;;9.39;87.63;97899.31;4991258;28;20179;-55
2022/04/06 04:13:33;;;;;;;4.87;3.63;;;;;;;9.53;85.20;97902.25;4991330;28;20203;-56
2022/04/06 04:16:01;;;;;;;7.83;3.80;;;;;;;9.47;86.23;97877.66;4990993;28;20286;-55
2022/04/06 04:18:27;;;;;;;5.20;3.77;;;;;;;9.40;86.65;97897.53;4988518;28;20218;-55
2022/04/06 04:21:32;;;;;;;7.47;4.30;;;;;;;9.31;88.20;97894.09;4990610;28;20656;-56
2022/04/06 04:23:42;;;;;;;6.73;4.20;;;;;;;9.30;87.23;97892.44;4971719;28;20207;-55
2022/04/06 04:26:08;;;;;;;5.53;3.80;;;;;;;9.28;86.43;97887.41;4970572;28;20243;-55
2022/04/06 04:28:36;;;;;;;10.73;7.27;;;;;;;9.26;87.28;97881.56;4971635;28;20186;-56
2022/04/06 04:31:04;;;;;;;6.67;4.70;;;;;;;9.25;87.84;97876.50;4971467;28;20199;-56
2022/04/06 04:33:30;;;;;;;10.17;5.33;;;;;;;9.28;87.20;97884.81;4971649;28;20192;-56
2022/04/06 04:35:57;;;;;;;6.70;4.37;;;;;;;9.25;86.58;97882.53;4971250;28;20224;-56
2022/04/06 04:38:24;;;;;;;5.73;4.43;;;;;;;9.24;87.19;97890.50;4971280;28;20203;-56
2022/04/06 04:40:51;;;;;;;5.97;4.20;;;;;;;9.26;86.30;97878.13;4971276;28;20250;-56
2022/04/06 04:43:18;;;;;;;5.67;4.20;;;;;;;9.27;85.87;97879.75;4971952;28;20255;-56
2022/04/06 04:45:45;;;;;;;6.23;4.40;;;;;;;9.25;87.02;97882.53;4970935;28;20584;-56
2022/04/06 04:48:12;;;;;;;5.80;3.90;;;;;;;9.37;86.30;97888.22;4971444;28;20191;-56
2022/04/06 04:50:39;;;;;;;7.87;5.57;;;;;;;9.31;86.22;97881.06;4971436;28;20295;-56
2022/04/06 04:53:06;;;;;;;9.40;7.03;;;;;;;9.28;86.65;97887.41;4971249;28;20188;-56
2022/04/06 04:55:33;;;;;;;5.57;4.93;;;;;;;9.32;86.00;97876.69;4971058;28;20200;-56
2022/04/06 04:58:00;;;;;;;6.37;4.30;;;;;;;9.38;86.43;97886.47;4971339;28;20220;-56
2022/04/06 05:00:27;;;;;;;5.17;3.93;;;;;;;9.38;84.86;97889.84;4970983;28;20238;-56
2022/04/06 05:02:55;;;;;;;61.30;39.50;;;;;;;9.34;86.42;97885.94;4969964;28;20887;-56
2022/04/06 05:05:22;;;;;;;10.33;6.70;;;;;;;9.29;86.72;97891.66;4970792;28;20195;-56
2022/04/06 05:07:48;;;;;;;8.77;5.00;;;;;;;9.30;86.31;97875.06;4971038;28;20191;-56
2022/04/06 05:10:15;;;;;;;14.97;12.43;;;;;;;9.28;86.81;97877.00;4970873;28;20236;-56
2022/04/06 05:12:42;;;;;;;9.70;8.27;;;;;;;9.27;87.04;97880.59;4971297;28;20191;-56
2022/04/06 05:15:10;;;;;;;8.00;5.20;;;;;;;9.25;87.91;97882.53;4970721;28;20734;-56
2022/04/06 05:17:36;;;;;;;6.53;5.13;;;;;;;9.23;88.02;97878.44;4970877;28;20207;-56
2022/04/06 05:20:06;;;;;;;12.73;7.70;;;;;;;9.19;88.68;97874.53;4970013;28;20212;-56
2022/04/06 05:22:32;;;;;;;28.00;17.57;;;;;;;9.20;88.89;97879.59;4970808;28;20196;-56
2022/04/06 05:25:00;;;;;;;7.50;6.43;;;;;;;9.18;89.32;97884.16;4970170;28;20191;-56
2022/04/06 05:27:27;;;;;;;6.90;4.73;;;;;;;9.16;88.92;97884.28;4970870;28;20208;-56
2022/04/06 05:29:53;;;;;;;6.70;5.60;;;;;;;9.23;89.37;97873.22;4969540;28;20302;-56
2022/04/06 05:32:20;;;;;;;6.70;5.40;;;;;;;9.23;90.20;97873.22;4970954;28;20312;-56
2022/04/06 05:34:47;;;;;;;5.90;4.47;;;;;;;9.28;88.56;97883.97;4969044;28;20603;-56
2022/04/06 05:37:15;;;;;;;5.93;4.50;;;;;;;9.30;89.03;97882.03;4970911;28;20196;-56
2022/04/06 05:39:41;;;;;;;7.20;4.97;;;;;;;9.31;88.96;97873.25;4974445;28;20223;-56
2022/04/06 05:42:09;;;;;;;7.20;4.70;;;;;;;9.30;88.10;97872.44;4975209;28;20278;-56
2022/04/06 05:44:35;;;;;;;6.80;5.40;;;;;;;9.38;88.71;97884.66;4983769;28;20195;-56
2022/04/06 05:47:02;;;;;;;7.03;5.43;;;;;;;9.36;89.98;97880.59;4984664;28;20204;-56
2022/04/06 05:49:29;;;;;;;6.40;4.50;;;;;;;9.37;89.24;97882.22;4982427;28;20640;-56
2022/04/06 05:51:55;;;;;;;5.77;4.47;;;;;;;9.41;89.22;97886.13;4984588;28;20199;-55
2022/04/06 05:54:23;;;;;;;6.30;4.77;;;;;;;9.39;88.55;97880.28;4993339;28;20203;-55
2022/04/06 05:56:50;;;;;;;7.70;5.00;;;;;;;9.43;87.92;97884.19;4992033;28;20552;-55
2022/04/06 05:59:17;;;;;;;6.43;4.90;;;;;;;9.47;87.93;97884.66;4991918;28;20724;-56
2022/04/06 06:01:43;;;;;;;8.17;6.07;;;;;;;9.42;88.67;97888.56;4992499;28;20423;-55
2022/04/06 06:04:10;;;;;;;10.97;6.33;;;;;;;9.44;89.52;97885.81;4994138;28;20196;-55
2022/04/06 06:06:37;;;;;;;8.50;7.07;;;;;;;9.55;87.62;97887.28;4981902;28;20199;-58
2022/04/06 06:09:04;;;;;;;6.30;5.20;;;;;;;9.50;87.16;97882.56;4975105;28;20212;-59
2022/04/06 06:11:32;;;;;;;8.47;6.03;;;;;;;9.43;88.90;97882.38;4974711;28;20204;-59
2022/04/06 06:13:59;;;;;;;8.87;6.57;;;;;;;9.36;88.78;97878.78;4974362;28;20192;-55
2022/04/06 06:16:25;;;;;;;9.67;6.57;;;;;;;9.45;87.60;97877.81;4975098;28;20187;-54
2022/04/06 06:18:52;;;;;;;8.27;5.33;;;;;;;9.41;88.29;97884.31;4990223;28;20223;-53
2022/04/06 06:21:19;;;;;;;7.03;5.40;;;;;;;9.52;89.56;97888.41;4993807;28;20256;-48
2022/04/06 06:23:46;;;;;;;9.57;5.87;;;;;;;9.70;86.35;97887.41;4994068;28;20196;-54
2022/04/06 06:26:13;;;;;;;9.97;5.17;;;;;;;9.71;86.27;97896.88;4993739;28;20184;-53
2022/04/06 06:28:41;;;;;;;7.43;4.50;;;;;;;9.74;86.48;97893.94;4993417;28;20304;-52
2022/04/06 06:31:08;;;;;;;6.83;4.23;;;;;;;9.70;86.82;97895.25;4993412;28;20185;-53
2022/04/06 06:33:35;;;;;;;6.47;4.50;;;;;;;9.74;86.55;97886.94;4991591;28;20198;-52
2022/04/06 06:36:01;;;;;;;6.90;4.57;;;;;;;9.79;87.14;97896.88;4985778;28;20200;-53
2022/04/06 06:38:28;;;;;;;6.30;4.03;;;;;;;9.78;86.05;97892.63;4992622;28;20217;-52
2022/04/06 06:40:55;;;;;;;6.27;4.20;;;;;;;9.87;86.11;97896.88;4991197;28;20312;-53
2022/04/06 06:43:21;;;;;;;8.40;6.10;;;;;;;9.95;86.43;97885.63;4992518;28;20548;-52
2022/04/06 06:45:49;;;;;;;7.27;4.17;;;;;;;9.93;85.67;97900.63;4989215;28;20688;-53
2022/04/06 06:48:16;;;;;;;7.05;5.40;;;;;;;10.01;86.07;97890.19;4981460;28;20794;-53
2022/04/06 06:50:43;;;;;;;5.90;4.60;;;;;;;10.02;84.57;97890.97;4982842;28;20227;-53
2022/04/06 06:53:09;;;;;;;6.07;4.40;;;;;;;10.13;84.00;97885.44;4982518;28;20193;-51
2022/04/06 06:55:36;;;;;;;8.47;4.43;;;;;;;10.12;84.00;97891.63;4983469;28;20195;-52
2022/04/06 06:58:03;;;;;;;5.57;3.47;;;;;;;10.42;83.82;97899.75;4983763;28;20392;-52
2022/04/06 07:00:30;;;;;;;5.20;3.67;;;;;;;10.62;82.64;97894.09;4984117;28;20225;-51
2022/04/06 07:02:58;;;;;;;6.77;3.57;;;;;;;10.51;81.64;97903.13;4990549;28;20192;-54
2022/04/06 07:05:25;;;;;;;5.20;3.43;;;;;;;10.72;80.00;97891.31;4992604;28;20821;-53
2022/04/06 07:07:53;;;;;;;4.47;3.17;;;;;;;10.85;79.65;97885.53;4991188;28;20276;-53
2022/04/06 07:10:21;;;;;;;3.87;2.73;;;;;;;10.81;79.33;97892.06;4992136;28;20206;-54
2022/04/06 07:12:48;;;;;;;4.87;3.17;;;;;;;10.96;79.25;97889.56;4992639;28;20200;-52
2022/04/06 07:15:14;;;;;;;9.33;4.37;;;;;;;10.99;79.24;97884.00;4992519;28;20185;-53
2022/04/06 07:17:41;;;;;;;8.33;4.27;;;;;;;10.97;79.54;97880.75;4992674;28;20660;-53
2022/04/06 07:20:11;;;;;;;6.13;3.60;;;;;;;11.04;79.33;97879.09;4992488;28;20218;-53
2022/04/06 07:22:38;;;;;;;5.07;3.40;;;;;;;10.98;80.50;97880.56;4992691;28;20189;-54
2022/04/06 07:25:05;;;;;;;4.13;2.80;;;;;;;11.22;77.16;97876.97;4992111;28;20186;-54
2022/04/06 07:27:36;;;;;;;4.73;3.10;;;;;;;11.25;77.13;97862.78;4992866;28;20654;-53
2022/04/06 07:30:03;;;;;;;3.93;2.73;;;;;;;11.31;77.34;97856.03;4992205;28;20208;-54
2022/04/06 07:32:31;;;;;;;4.47;2.80;;;;;;;11.11;77.56;97860.91;4992786;28;20222;-54
2022/04/06 07:34:58;;;;;;;5.30;2.80;;;;;;;11.24;77.52;97858.53;4992094;28;20280;-54
2022/04/06 07:37:26;;;;;;;4.47;2.40;;;;;;;11.61;76.16;97859.56;4992179;28;20182;-54
2022/04/06 07:39:53;;;;;;;4.13;2.23;;;;;;;11.72;76.49;97865.34;4991907;28;20644;-54
2022/04/06 07:42:20;;;;;;;4.53;2.40;;;;;;;11.89;75.01;97858.97;4992598;28;20196;-53
2022/04/06 07:44:47;;;;;;;5.07;2.50;;;;;;;11.86;75.03;97856.72;4989837;28;20210;-54
2022/04/06 07:47:14;;;;;;;3.87;2.73;;;;;;;12.17;71.67;97852.38;4991827;28;20671;-52
2022/04/06 07:49:40;;;;;;;4.63;3.57;;;;;;;12.24;72.45;97843.63;4991863;28;20264;-54
2022/04/06 07:52:07;;;;;;;3.57;2.30;;;;;;;12.39;72.15;97843.59;4992040;28;20196;-52
2022/04/06 07:54:35;;;;;;;3.53;2.07;;;;;;;12.45;71.83;97846.47;4992183;28;20835;-54
2022/04/06 07:57:02;;;;;;;3.23;1.67;;;;;;;12.73;69.73;97848.44;4992353;28;20562;-53
2022/04/06 07:59:29;;;;;;;2.40;1.63;;;;;;;12.83;70.71;97849.75;4990456;28;20639;-54
2022/04/06 08:01:56;;;;;;;3.40;1.70;;;;;;;12.98;69.21;97846.28;4991591;28;20188;-54
2022/04/06 08:04:22;;;;;;;2.20;1.67;;;;;;;13.12;67.40;97857.72;4987709;28;20205;-54
2022/04/06 08:06:49;;;;;;;2.87;1.50;;;;;;;12.96;67.12;97848.28;4987599;28;20197;-53
2022/04/06 08:09:16;;;;;;;2.27;1.60;;;;;;;12.89;68.16;97861.31;4991192;28;20206;-54
2022/04/06 08:11:44;;;;;;;3.33;1.43;;;;;;;13.30;66.51;97849.44;4990214;28;20544;-54
2022/04/06 08:14:11;;;;;;;2.93;1.60;;;;;;;13.26;65.24;97858.66;4989789;28;20201;-54
2022/04/06 08:16:38;;;;;;;1.43;1.13;;;;;;;13.34;63.84;97853.28;4992369;28;20196;-54
2022/04/06 08:19:05;;;;;;;3.77;1.43;;;;;;;13.11;64.30;97854.28;5010334;28;20299;-55
2022/04/06 08:21:32;;;;;;;2.97;1.30;;;;;;;13.13;66.07;97859.34;5011341;28;20536;-54
2022/04/06 08:23:58;;;;;;;1.17;0.70;;;;;;;12.76;66.00;97853.31;5011241;28;20180;-52
2022/04/06 08:26:27;;;;;;;2.13;0.90;;;;;;;13.02;66.82;97849.34;5011788;28;20211;-54
2022/04/06 08:28:55;;;;;;;1.17;0.90;;;;;;;12.90;66.53;97841.16;5011390;28;20199;-54
2022/04/06 08:31:22;;;;;;;2.30;1.00;;;;;;;12.87;64.89;97850.22;5011163;28;20281;-55
2022/04/06 08:33:49;;;;;;;2.33;0.83;;;;;;;13.36;62.92;97850.47;5011266;28;20273;-54
2022/04/06 08:36:16;;;;;;;1.20;0.80;;;;;;;13.41;62.21;97855.97;5010653;28;20193;-53
2022/04/06 08:38:43;;;;;;;3.00;1.00;;;;;;;13.21;62.38;97853.16;5011403;28;20680;-53
2022/04/06 08:41:10;;;;;;;2.13;1.23;;;;;;;13.14;64.16;97843.44;5011109;28;20196;-53
2022/04/06 08:43:37;;;;;;;1.77;1.03;;;;;;;13.08;65.08;97841.56;5011219;28;20188;-52
2022/04/06 08:46:05;;;;;;;1.50;0.90;;;;;;;13.08;63.73;97846.00;5010884;28;20189;-54
2022/04/06 08:48:33;;;;;;;1.63;0.90;;;;;;;13.24;64.78;97851.00;5010765;28;20197;-53
2022/04/06 08:51:01;;;;;;;1.33;0.90;;;;;;;13.53;63.05;97843.22;5011121;28;20199;-52
2022/04/06 08:53:28;;;;;;;2.10;1.00;;;;;;;13.66;61.59;97840.69;5011328;28;20189;-54
2022/04/06 08:55:55;;;;;;;1.03;0.90;;;;;;;13.88;61.58;97848.50;5010667;28;20192;-54
2022/04/06 08:58:22;;;;;;;1.13;0.90;;;;;;;13.43;61.92;97849.56;5010859;28;20661;-53
2022/04/06 09:00:48;;;;;;;1.90;0.80;;;;;;;13.26;62.75;97833.25;5010620;28;20316;-53
2022/04/06 09:03:17;;;;;;;2.30;0.80;;;;;;;13.15;63.25;97841.63;4986018;28;20197;-54
2022/04/06 09:05:44;;;;;;;2.33;1.10;;;;;;;13.35;64.38;97841.81;4990497;28;20198;-54
2022/04/06 09:08:11;;;;;;;2.00;1.00;;;;;;;12.91;65.15;97843.59;4990870;28;20206;-55
2022/04/06 09:10:40;;;;;;;2.13;0.90;;;;;;;13.11;65.39;97843.81;4990825;28;20209;-47
2022/04/06 09:13:11;;;;;;;2.00;1.27;;;;;;;13.08;64.63;97846.78;4994731;28;20220;-47
2022/04/06 09:15:38;;;;;;;2.90;1.40;;;;;;;12.97;65.04;97849.91;4996536;28;20643;-44
2022/04/06 09:18:05;;;;;;;2.13;1.40;;;;;;;12.84;65.03;97838.28;4996381;28;20645;-55
2022/04/06 09:20:33;;;;;;;5.00;1.70;;;;;;;12.61;66.77;97838.44;4997101;28;20222;-54
2022/04/06 09:23:02;;;;;;;3.23;1.60;;;;;;;12.58;68.08;97846.66;4997436;28;20196;-55
2022/04/06 09:25:33;;;;;;;2.00;1.60;;;;;;;12.30;69.11;97842.06;4994207;28;20665;-54
2022/04/06 09:28:06;;;;;;;3.17;1.90;;;;;;;12.74;66.87;97843.00;4997535;28;20189;-55
2022/04/06 09:30:34;;;;;;;1.70;1.50;;;;;;;12.61;68.62;97841.03;4997433;28;20262;-55
2022/04/06 09:33:03;;;;;;;2.13;1.60;;;;;;;12.42;68.33;97841.59;4997722;28;20227;-54
2022/04/06 09:35:32;;;;;;;4.93;1.57;;;;;;;12.18;67.79;97840.91;4997471;28;20200;-54
2022/04/06 09:38:15;;;;;;;1.60;1.30;;;;;;;12.15;68.78;97831.63;4997569;28;20193;-54
2022/04/06 09:40:43;;;;;;;2.83;1.73;;;;;;;12.13;69.09;97830.19;4995923;28;20231;-54
2022/04/06 09:43:26;;;;;;;1.57;1.10;;;;;;;12.13;68.49;97827.56;4997586;28;20210;-54
2022/04/06 09:48:53;;;;;;;2.20;1.13;;;;;;;12.14;67.95;97830.00;4997501;28;20247;-55
2022/04/06 09:51:21;;;;;;;2.87;1.40;;;;;;;12.13;67.90;97824.94;4997304;28;20189;-54
2022/04/06 09:53:51;;;;;;;1.90;1.20;;;;;;;12.33;67.15;97827.81;4997671;28;20739;-54
2022/04/06 09:56:18;;;;;;;3.43;1.20;;;;;;;12.48;66.80;97818.16;4997207;28;20280;-55
2022/04/06 09:58:46;;;;;;;1.33;1.23;;;;;;;12.98;66.86;97812.22;4997383;28;20683;-54
2022/04/06 10:01:13;;;;;;;2.30;1.37;;;;;;;13.21;65.37;97811.25;4997160;28;20194;-54
2022/04/06 10:03:44;;;;;;;1.93;0.97;;;;;;;13.66;63.07;97811.84;4997450;28;20207;-53
2022/04/06 10:06:11;;;;;;;2.17;1.30;;;;;;;13.92;62.13;97801.72;4997051;28;20193;-52
2022/04/06 10:08:39;;;;;;;2.60;1.40;;;;;;;13.21;63.00;97804.19;4997171;28;20216;-54
2022/04/06 10:11:08;;;;;;;3.10;1.30;;;;;;;12.83;64.30;97804.44;4996980;28;20190;-53
2022/04/06 10:13:35;;;;;;;1.70;1.00;;;;;;;12.81;65.14;97803.81;4997482;28;20200;-55
2022/04/06 10:16:02;;;;;;;5.30;1.10;;;;;;;13.13;62.64;97799.88;4996725;28;20181;-54
2022/04/06 10:18:32;;;;;;;1.60;1.30;;;;;;;12.97;63.52;97797.50;4997161;28;20181;-53
2022/04/06 10:21:06;;;;;;;2.27;0.97;;;;;;;12.80;63.81;97812.66;4997072;28;20219;-54
2022/04/06 10:23:48;;;;;;;2.17;0.70;;;;;;;12.77;63.26;97790.25;5012075;28;20195;-54
2022/04/06 10:26:34;;;;;;;3.20;0.90;;;;;;;12.75;63.74;97794.88;5013543;28;20217;-55
2022/04/06 10:29:01;;;;;;;0.83;0.60;;;;;;;13.09;62.67;97795.22;5013787;28;20204;-54
2022/04/06 10:31:29;;;;;;;1.93;0.90;;;;;;;13.28;62.35;97789.31;5013478;28;20185;-53
2022/04/06 10:34:21;;;;;;;1.20;1.10;;;;;;;13.11;63.29;97785.38;5013406;28;20191;-55
2022/04/06 10:37:04;;;;;;;2.57;0.90;;;;;;;13.24;63.38;97789.91;5013456;28;20184;-54
2022/04/06 10:39:32;;;;;;;1.63;0.97;;;;;;;13.26;63.85;97787.91;5013268;28;20678;-55
2022/04/06 10:42:19;;;;;;;1.60;0.93;;;;;;;13.18;63.86;97786.22;5013360;28;20189;-54
2022/04/06 10:44:46;;;;;;;1.20;0.93;;;;;;;13.56;61.84;97779.91;5013117;28;20281;-55
2022/04/06 10:47:14;;;;;;;1.17;0.60;;;;;;;13.53;60.09;97780.28;5013281;28;20200;-54
2022/04/06 10:49:41;;;;;;;1.80;0.70;;;;;;;13.49;60.34;97774.59;5012876;28;20208;-53
2022/04/06 10:52:24;;;;;;;1.87;0.70;;;;;;;13.82;59.11;97776.63;5013340;28;20209;-55
2022/04/06 10:54:52;;;;;;;0.60;0.60;;;;;;;13.29;60.98;97772.59;5012864;28;20190;-55
2022/04/06 10:57:21;;;;;;;2.10;0.80;;;;;;;13.69;60.64;97756.41;5013185;28;20216;-54
2022/04/06 11:00:13;;;;;;;1.63;0.70;;;;;;;13.60;60.83;97761.97;5011445;28;20592;-54
2022/04/06 11:02:49;;;;;;;3.47;0.57;;;;;;;13.99;59.02;97768.47;5013334;28;20194;-54
2022/04/06 11:05:45;;;;;;;0.97;0.70;;;;;;;14.47;56.43;97765.03;4993656;28;20189;-54
2022/04/06 11:11:35;;;;;;;0.93;0.50;;;;;;;14.16;57.37;97751.38;4992861;28;20221;-54
2022/04/06 11:14:04;;;;;;;1.83;0.53;;;;;;;14.67;56.37;97740.63;4993020;28;20734;-55
2022/04/06 11:16:44;;;;;;;1.33;0.50;;;;;;;14.62;55.09;97738.59;4993191;28;20191;-55
2022/04/06 11:19:11;;;;;;;1.47;0.57;;;;;;;14.23;57.47;97732.22;4993141;28;20249;-54
2022/04/06 11:21:49;;;;;;;2.17;0.70;;;;;;;14.09;57.90;97731.34;4992961;28;20188;-54
2022/04/06 11:24:18;;;;;;;2.23;0.97;;;;;;;13.52;58.26;97727.03;4992673;28;20201;-53
2022/04/06 11:26:45;;;;;;;0.60;0.60;;;;;;;13.52;58.44;97721.78;4992906;28;20212;-54
2022/04/06 11:29:13;;;;;;;0.73;0.73;;;;;;;13.72;57.70;97729.78;4993033;28;20202;-54
2022/04/06 11:31:57;;;;;;;0.80;0.70;;;;;;;13.78;58.02;97720.31;4992995;28;20190;-54
2022/04/06 11:34:31;;;;;;;1.00;0.63;;;;;;;13.65;58.71;97720.25;4992642;28;20233;-54
2022/04/06 11:36:58;;;;;;;1.70;0.70;;;;;;;13.65;58.19;97713.19;4992446;28;20185;-55
2022/04/06 11:39:25;;;;;;;1.37;0.80;;;;;;;13.76;58.28;97714.47;4992613;28;20218;-54
2022/04/06 11:41:52;;;;;;;2.30;0.50;;;;;;;13.80;58.35;97699.94;4992553;28;20212;-54
2022/04/06 11:44:24;;;;;;;1.50;0.70;;;;;;;13.92;57.58;97709.91;4992547;28;20195;-54
2022/04/06 11:46:51;;;;;;;1.00;0.90;;;;;;;13.85;56.79;97701.97;4992619;28;20186;-54
2022/04/06 11:49:21;;;;;;;1.13;0.70;;;;;;;13.67;57.24;97713.81;4992574;28;20712;-55
2022/04/06 11:51:48;;;;;;;2.17;0.87;;;;;;;13.99;55.24;97711.53;4992205;28;20417;-53
2022/04/06 11:54:16;;;;;;;1.80;0.83;;;;;;;13.85;57.09;97705.44;5004931;28;20651;-54
2022/04/06 11:56:43;;;;;;;1.00;0.87;;;;;;;14.42;55.41;97705.22;5011944;28;20658;-53